sensor_id;sensor_type;location;lat;lon;timestamp;temperature;humidity
33645;DHT22;19986;48.190;16.366;2024-02-23T00:01:35;13.70;99.90
33645;DHT22;19986;48.190;16.366;2024-02-23T00:04:01;13.70;99.90
33645;DHT22;19986;48.190;16.366;2024-02-23T00:06:28;13.80;99.90
33645;DHT22;19986;48.190;16.366;2024-02-23T00:08:54;13.80;99.90
33645;DHT22;19986;48.190;16.366;2024-02-23T00:11:21;13.80;99.90
33645;DHT22;19986;48.190;16.366;2024-02-23T00:13:47;13.80;99.90
33645;DHT22;19986;48.190;16.366;2024-02-23T00:16:12;13.80;99.90
33645;DHT22;19986;48.190;16.366;2024-02-23T00:18:39;13.90;99.90
33645;DHT22;19986;48.190;16.366;2024-02-23T00:21:05;13.90;99.90
33645;DHT22;19986;48.190;16.366;2024-02-23T00:23:31;13.90;99.90
33645;DHT22;19986;48.190;16.366;2024-02-23T00:25:56;13.90;99.90
33645;DHT22;19986;48.190;16.366;2024-02-23T00:28:22;13.80;99.90
33645;DHT22;19986;48.190;16.366;2024-02-23T00:30:48;13.70;99.90
33645;DHT22;19986;48.190;16.366;2024-02-23T00:33:14;13.70;99.90
33645;DHT22;19986;48.190;16.366;2024-02-23T00:35:40;13.70;99.90
33645;DHT22;19986;48.190;16.366;2024-02-23T00:38:06;13.80;99.90
33645;DHT22;19986;48.190;16.366;2024-02-23T00:40:33;13.80;99.90
33645;DHT22;19986;48.190;16.366;2024-02-23T00:42:59;13.80;99.90
33645;DHT22;19986;48.190;16.366;2024-02-23T00:45:26;13.80;99.90
33645;DHT22;19986;48.190;16.366;2024-02-23T00:47:52;13.90;99.90
33645;DHT22;19986;48.190;16.366;2024-02-23T00:50:18;13.90;99.90
33645;DHT22;19986;48.190;16.366;2024-02-23T00:52:45;13.90;99.90
33645;DHT22;19986;48.190;16.366;2024-02-23T00:55:11;13.90;99.90
33645;DHT22;19986;48.190;16.366;2024-02-23T00:57:38;13.80;99.90
33645;DHT22;19986;48.190;16.366;2024-02-23T01:00:04;13.80;99.90
33645;DHT22;19986;48.190;16.366;2024-02-23T01:02:35;13.80;99.90
33645;DHT22;19986;48.190;16.366;2024-02-23T01:05:00;13.80;99.90
33645;DHT22;19986;48.190;16.366;2024-02-23T01:07:28;13.80;99.90
33645;DHT22;19986;48.190;16.366;2024-02-23T01:09:53;13.80;99.90
33645;DHT22;19986;48.190;16.366;2024-02-23T01:12:19;13.80;99.90
33645;DHT22;19986;48.190;16.366;2024-02-23T01:14:45;13.80;99.90
33645;DHT22;19986;48.190;16.366;2024-02-23T01:17:15;13.80;99.90
33645;DHT22;19986;48.190;16.366;2024-02-23T01:19:41;13.90;99.90
33645;DHT22;19986;48.190;16.366;2024-02-23T01:22:08;13.80;99.90
33645;DHT22;19986;48.190;16.366;2024-02-23T01:24:34;13.80;99.90
33645;DHT22;19986;48.190;16.366;2024-02-23T01:27:00;13.70;99.90
33645;DHT22;19986;48.190;16.366;2024-02-23T01:29:26;13.70;99.90
33645;DHT22;19986;48.190;16.366;2024-02-23T01:31:52;13.70;99.90
33645;DHT22;19986;48.190;16.366;2024-02-23T01:34:21;13.70;99.90
33645;DHT22;19986;48.190;16.366;2024-02-23T01:36:48;13.70;99.90
33645;DHT22;19986;48.190;16.366;2024-02-23T01:39:14;13.70;99.90
33645;DHT22;19986;48.190;16.366;2024-02-23T01:41:41;13.70;99.90
33645;DHT22;19986;48.190;16.366;2024-02-23T01:44:10;13.80;99.90
33645;DHT22;19986;48.190;16.366;2024-02-23T01:46:37;13.80;99.90
33645;DHT22;19986;48.190;16.366;2024-02-23T01:49:05;13.80;99.90
33645;DHT22;19986;48.190;16.366;2024-02-23T01:51:33;13.70;99.90
33645;DHT22;19986;48.190;16.366;2024-02-23T01:54:01;13.80;99.90
33645;DHT22;19986;48.190;16.366;2024-02-23T01:56:28;13.70;99.90
33645;DHT22;19986;48.190;16.366;2024-02-23T01:58:55;13.70;99.90
33645;DHT22;19986;48.190;16.366;2024-02-23T02:01:22;13.70;99.90
33645;DHT22;19986;48.190;16.366;2024-02-23T02:03:48;13.60;99.90
33645;DHT22;19986;48.190;16.366;2024-02-23T02:06:14;13.60;99.90
33645;DHT22;19986;48.190;16.366;2024-02-23T02:08:41;13.60;99.90
33645;DHT22;19986;48.190;16.366;2024-02-23T02:11:07;13.60;99.90
33645;DHT22;19986;48.190;16.366;2024-02-23T02:13:34;13.60;99.90
33645;DHT22;19986;48.190;16.366;2024-02-23T02:16:01;13.60;99.90
33645;DHT22;19986;48.190;16.366;2024-02-23T02:18:29;13.60;99.90
33645;DHT22;19986;48.190;16.366;2024-02-23T02:20:56;13.60;99.90
33645;DHT22;19986;48.190;16.366;2024-02-23T02:23:24;13.70;99.90
33645;DHT22;19986;48.190;16.366;2024-02-23T02:25:56;13.60;99.90
33645;DHT22;19986;48.190;16.366;2024-02-23T02:28:24;13.70;99.90
33645;DHT22;19986;48.190;16.366;2024-02-23T02:30:51;13.60;99.90
33645;DHT22;19986;48.190;16.366;2024-02-23T02:33:22;13.70;99.90
33645;DHT22;19986;48.190;16.366;2024-02-23T02:35:48;13.70;99.90
33645;DHT22;19986;48.190;16.366;2024-02-23T02:38:16;13.70;99.90
33645;DHT22;19986;48.190;16.366;2024-02-23T02:40:42;13.70;99.90
33645;DHT22;19986;48.190;16.366;2024-02-23T02:43:09;13.70;99.90
33645;DHT22;19986;48.190;16.366;2024-02-23T02:45:35;13.70;99.90
33645;DHT22;19986;48.190;16.366;2024-02-23T02:48:01;13.70;99.90
33645;DHT22;19986;48.190;16.366;2024-02-23T02:50:30;13.70;99.90
33645;DHT22;19986;48.190;16.366;2024-02-23T02:52:56;13.70;99.90
33645;DHT22;19986;48.190;16.366;2024-02-23T02:55:22;13.70;99.90
33645;DHT22;19986;48.190;16.366;2024-02-23T02:57:48;13.60;99.90
33645;DHT22;19986;48.190;16.366;2024-02-23T03:00:14;13.60;99.90
33645;DHT22;19986;48.190;16.366;2024-02-23T03:02:39;13.50;99.90
33645;DHT22;19986;48.190;16.366;2024-02-23T03:05:06;13.50;99.90
33645;DHT22;19986;48.190;16.366;2024-02-23T03:07:32;13.50;99.90
33645;DHT22;19986;48.190;16.366;2024-02-23T03:09:57;13.50;99.90
33645;DHT22;19986;48.190;16.366;2024-02-23T03:12:23;13.40;99.90
33645;DHT22;19986;48.190;16.366;2024-02-23T03:14:49;13.40;99.90
33645;DHT22;19986;48.190;16.366;2024-02-23T03:17:17;13.40;99.90
33645;DHT22;19986;48.190;16.366;2024-02-23T03:19:43;13.30;99.90
33645;DHT22;19986;48.190;16.366;2024-02-23T03:22:09;13.30;99.90
33645;DHT22;19986;48.190;16.366;2024-02-23T03:24:34;13.40;99.90
33645;DHT22;19986;48.190;16.366;2024-02-23T03:27:01;13.30;99.90
33645;DHT22;19986;48.190;16.366;2024-02-23T03:29:27;13.40;99.90
33645;DHT22;19986;48.190;16.366;2024-02-23T03:31:56;13.40;99.90
33645;DHT22;19986;48.190;16.366;2024-02-23T03:34:22;13.30;99.90
33645;DHT22;19986;48.190;16.366;2024-02-23T03:36:48;13.30;99.90
33645;DHT22;19986;48.190;16.366;2024-02-23T03:39:14;13.30;99.90
33645;DHT22;19986;48.190;16.366;2024-02-23T03:41:40;13.30;99.90
33645;DHT22;19986;48.190;16.366;2024-02-23T03:44:06;13.30;99.90
33645;DHT22;19986;48.190;16.366;2024-02-23T03:46:32;13.20;99.90
33645;DHT22;19986;48.190;16.366;2024-02-23T03:48:57;13.10;99.90
33645;DHT22;19986;48.190;16.366;2024-02-23T03:51:23;13.10;99.90
33645;DHT22;19986;48.190;16.366;2024-02-23T03:53:50;13.00;99.90
33645;DHT22;19986;48.190;16.366;2024-02-23T03:56:16;13.00;99.90
33645;DHT22;19986;48.190;16.366;2024-02-23T03:58:42;12.90;99.90
33645;DHT22;19986;48.190;16.366;2024-02-23T04:01:08;13.00;99.90
33645;DHT22;19986;48.190;16.366;2024-02-23T04:03:34;12.90;99.90
33645;DHT22;19986;48.190;16.366;2024-02-23T04:06:00;13.00;99.90
33645;DHT22;19986;48.190;16.366;2024-02-23T04:08:26;13.00;99.90
33645;DHT22;19986;48.190;16.366;2024-02-23T04:10:52;12.80;99.90
33645;DHT22;19986;48.190;16.366;2024-02-23T04:13:18;12.70;99.90
33645;DHT22;19986;48.190;16.366;2024-02-23T04:15:44;12.50;99.90
33645;DHT22;19986;48.190;16.366;2024-02-23T04:18:10;12.40;99.90
33645;DHT22;19986;48.190;16.366;2024-02-23T04:20:36;12.40;99.90
33645;DHT22;19986;48.190;16.366;2024-02-23T04:23:02;12.30;99.90
33645;DHT22;19986;48.190;16.366;2024-02-23T04:25:28;12.30;99.90
33645;DHT22;19986;48.190;16.366;2024-02-23T04:27:53;12.20;99.90
33645;DHT22;19986;48.190;16.366;2024-02-23T04:30:19;12.20;99.90
33645;DHT22;19986;48.190;16.366;2024-02-23T04:32:45;12.10;99.90
33645;DHT22;19986;48.190;16.366;2024-02-23T04:35:11;12.10;99.90
33645;DHT22;19986;48.190;16.366;2024-02-23T04:37:37;12.20;99.90
33645;DHT22;19986;48.190;16.366;2024-02-23T04:40:03;12.20;99.90
33645;DHT22;19986;48.190;16.366;2024-02-23T04:42:31;12.20;99.90
33645;DHT22;19986;48.190;16.366;2024-02-23T04:44:57;12.10;99.90
33645;DHT22;19986;48.190;16.366;2024-02-23T04:47:23;12.10;99.90
33645;DHT22;19986;48.190;16.366;2024-02-23T04:49:51;12.10;99.90
33645;DHT22;19986;48.190;16.366;2024-02-23T04:52:17;12.00;99.90
33645;DHT22;19986;48.190;16.366;2024-02-23T04:54:44;12.00;99.90
33645;DHT22;19986;48.190;16.366;2024-02-23T04:57:10;12.00;99.90
33645;DHT22;19986;48.190;16.366;2024-02-23T04:59:37;12.10;99.90
33645;DHT22;19986;48.190;16.366;2024-02-23T05:02:03;12.20;99.90
33645;DHT22;19986;48.190;16.366;2024-02-23T05:04:44;12.20;99.90
33645;DHT22;19986;48.190;16.366;2024-02-23T05:07:10;12.20;99.90
33645;DHT22;19986;48.190;16.366;2024-02-23T05:09:36;12.20;99.90
33645;DHT22;19986;48.190;16.366;2024-02-23T05:12:03;12.30;99.90
33645;DHT22;19986;48.190;16.366;2024-02-23T05:14:29;12.30;99.90
33645;DHT22;19986;48.190;16.366;2024-02-23T05:16:55;12.20;99.90
33645;DHT22;19986;48.190;16.366;2024-02-23T05:19:21;12.20;99.90
33645;DHT22;19986;48.190;16.366;2024-02-23T05:21:47;12.20;99.90
33645;DHT22;19986;48.190;16.366;2024-02-23T05:24:12;12.10;99.90
33645;DHT22;19986;48.190;16.366;2024-02-23T05:26:40;12.10;99.90
33645;DHT22;19986;48.190;16.366;2024-02-23T05:29:06;12.10;99.90
33645;DHT22;19986;48.190;16.366;2024-02-23T05:31:53;12.20;99.90
33645;DHT22;19986;48.190;16.366;2024-02-23T05:34:19;12.20;99.90
33645;DHT22;19986;48.190;16.366;2024-02-23T05:36:46;12.10;99.90
33645;DHT22;19986;48.190;16.366;2024-02-23T05:39:13;12.10;99.90
33645;DHT22;19986;48.190;16.366;2024-02-23T05:41:41;12.10;99.90
33645;DHT22;19986;48.190;16.366;2024-02-23T05:44:07;12.10;99.90
33645;DHT22;19986;48.190;16.366;2024-02-23T05:46:35;12.20;99.90
33645;DHT22;19986;48.190;16.366;2024-02-23T05:49:02;12.30;99.90
33645;DHT22;19986;48.190;16.366;2024-02-23T05:51:29;12.30;99.90
33645;DHT22;19986;48.190;16.366;2024-02-23T05:53:55;12.30;99.90
33645;DHT22;19986;48.190;16.366;2024-02-23T05:56:21;12.30;99.90
33645;DHT22;19986;48.190;16.366;2024-02-23T05:58:48;12.30;99.90
33645;DHT22;19986;48.190;16.366;2024-02-23T06:01:14;12.20;99.90
33645;DHT22;19986;48.190;16.366;2024-02-23T06:03:40;12.30;99.90
33645;DHT22;19986;48.190;16.366;2024-02-23T06:06:08;12.30;99.90
33645;DHT22;19986;48.190;16.366;2024-02-23T06:08:35;12.40;99.90
33645;DHT22;19986;48.190;16.366;2024-02-23T06:11:02;12.40;99.90
33645;DHT22;19986;48.190;16.366;2024-02-23T06:13:29;12.40;99.90
33645;DHT22;19986;48.190;16.366;2024-02-23T06:15:55;12.40;99.90
33645;DHT22;19986;48.190;16.366;2024-02-23T06:18:21;12.40;99.90
33645;DHT22;19986;48.190;16.366;2024-02-23T06:20:48;12.40;99.90
33645;DHT22;19986;48.190;16.366;2024-02-23T06:23:16;12.50;99.90
33645;DHT22;19986;48.190;16.366;2024-02-23T06:25:42;12.40;99.90
33645;DHT22;19986;48.190;16.366;2024-02-23T06:28:09;12.50;99.90
33645;DHT22;19986;48.190;16.366;2024-02-23T06:30:36;12.50;99.90
33645;DHT22;19986;48.190;16.366;2024-02-23T06:33:02;12.50;99.90
33645;DHT22;19986;48.190;16.366;2024-02-23T06:35:30;12.50;99.90
33645;DHT22;19986;48.190;16.366;2024-02-23T06:37:56;12.50;99.90
33645;DHT22;19986;48.190;16.366;2024-02-23T06:40:22;12.60;99.90
33645;DHT22;19986;48.190;16.366;2024-02-23T06:42:49;12.60;99.90
33645;DHT22;19986;48.190;16.366;2024-02-23T06:45:16;12.60;99.90
33645;DHT22;19986;48.190;16.366;2024-02-23T06:47:44;12.60;99.90
33645;DHT22;19986;48.190;16.366;2024-02-23T06:50:11;12.60;99.90
33645;DHT22;19986;48.190;16.366;2024-02-23T06:52:42;12.60;99.90
33645;DHT22;19986;48.190;16.366;2024-02-23T06:55:08;12.60;99.90
33645;DHT22;19986;48.190;16.366;2024-02-23T06:57:36;12.70;99.90
33645;DHT22;19986;48.190;16.366;2024-02-23T07:00:04;12.70;99.90
33645;DHT22;19986;48.190;16.366;2024-02-23T07:02:31;12.70;99.90
33645;DHT22;19986;48.190;16.366;2024-02-23T07:05:00;12.80;99.90
33645;DHT22;19986;48.190;16.366;2024-02-23T07:07:29;12.80;99.90
33645;DHT22;19986;48.190;16.366;2024-02-23T07:09:56;12.90;99.90
33645;DHT22;19986;48.190;16.366;2024-02-23T07:12:22;13.10;99.90
33645;DHT22;19986;48.190;16.366;2024-02-23T07:14:48;13.20;99.90
33645;DHT22;19986;48.190;16.366;2024-02-23T07:17:17;13.20;99.90
33645;DHT22;19986;48.190;16.366;2024-02-23T07:19:44;13.20;99.90
33645;DHT22;19986;48.190;16.366;2024-02-23T07:22:09;13.10;99.90
33645;DHT22;19986;48.190;16.366;2024-02-23T07:24:42;13.20;99.90
33645;DHT22;19986;48.190;16.366;2024-02-23T07:27:08;13.20;99.90
33645;DHT22;19986;48.190;16.366;2024-02-23T07:29:35;13.20;99.90
33645;DHT22;19986;48.190;16.366;2024-02-23T07:32:01;13.30;99.90
33645;DHT22;19986;48.190;16.366;2024-02-23T07:34:27;13.30;99.90
33645;DHT22;19986;48.190;16.366;2024-02-23T07:36:53;13.30;99.90
33645;DHT22;19986;48.190;16.366;2024-02-23T07:39:20;13.40;99.90
33645;DHT22;19986;48.190;16.366;2024-02-23T07:41:48;13.40;99.90
33645;DHT22;19986;48.190;16.366;2024-02-23T07:44:13;13.40;99.90
33645;DHT22;19986;48.190;16.366;2024-02-23T07:46:39;13.40;99.90
33645;DHT22;19986;48.190;16.366;2024-02-23T07:49:05;13.40;99.90
33645;DHT22;19986;48.190;16.366;2024-02-23T07:51:35;13.40;99.90
33645;DHT22;19986;48.190;16.366;2024-02-23T07:54:02;13.30;99.90
33645;DHT22;19986;48.190;16.366;2024-02-23T07:56:28;13.30;99.90
33645;DHT22;19986;48.190;16.366;2024-02-23T07:58:55;13.30;99.90
33645;DHT22;19986;48.190;16.366;2024-02-23T08:01:21;13.30;99.90
33645;DHT22;19986;48.190;16.366;2024-02-23T08:03:47;13.30;99.90
33645;DHT22;19986;48.190;16.366;2024-02-23T08:06:13;13.30;99.90
33645;DHT22;19986;48.190;16.366;2024-02-23T08:08:39;13.30;99.90
33645;DHT22;19986;48.190;16.366;2024-02-23T08:11:05;13.30;99.90
33645;DHT22;19986;48.190;16.366;2024-02-23T08:13:31;13.30;99.90
33645;DHT22;19986;48.190;16.366;2024-02-23T08:15:57;13.40;99.90
33645;DHT22;19986;48.190;16.366;2024-02-23T08:18:23;13.40;99.90
33645;DHT22;19986;48.190;16.366;2024-02-23T08:20:51;13.40;99.90
33645;DHT22;19986;48.190;16.366;2024-02-23T08:23:17;13.30;99.90
33645;DHT22;19986;48.190;16.366;2024-02-23T08:25:44;13.40;99.90
33645;DHT22;19986;48.190;16.366;2024-02-23T08:28:10;13.40;99.90
33645;DHT22;19986;48.190;16.366;2024-02-23T08:30:36;13.50;99.90
33645;DHT22;19986;48.190;16.366;2024-02-23T08:33:02;13.50;99.90
33645;DHT22;19986;48.190;16.366;2024-02-23T08:35:28;13.50;99.90
33645;DHT22;19986;48.190;16.366;2024-02-23T08:37:54;13.60;99.90
33645;DHT22;19986;48.190;16.366;2024-02-23T08:40:20;13.70;99.90
33645;DHT22;19986;48.190;16.366;2024-02-23T08:43:00;13.80;99.90
33645;DHT22;19986;48.190;16.366;2024-02-23T08:45:26;13.80;99.90
33645;DHT22;19986;48.190;16.366;2024-02-23T08:47:52;13.90;99.90
33645;DHT22;19986;48.190;16.366;2024-02-23T08:50:18;13.90;99.90
33645;DHT22;19986;48.190;16.366;2024-02-23T08:52:44;13.90;99.90
33645;DHT22;19986;48.190;16.366;2024-02-23T08:55:09;14.00;99.90
33645;DHT22;19986;48.190;16.366;2024-02-23T08:57:37;14.10;99.90
33645;DHT22;19986;48.190;16.366;2024-02-23T09:00:04;14.10;99.90
33645;DHT22;19986;48.190;16.366;2024-02-23T09:02:30;14.20;99.90
33645;DHT22;19986;48.190;16.366;2024-02-23T09:04:58;14.20;99.90
33645;DHT22;19986;48.190;16.366;2024-02-23T09:07:24;14.30;99.90
33645;DHT22;19986;48.190;16.366;2024-02-23T09:09:50;14.30;99.90
33645;DHT22;19986;48.190;16.366;2024-02-23T09:12:16;14.30;99.90
33645;DHT22;19986;48.190;16.366;2024-02-23T09:14:42;14.30;99.90
33645;DHT22;19986;48.190;16.366;2024-02-23T09:17:09;14.40;99.90
33645;DHT22;19986;48.190;16.366;2024-02-23T09:19:36;14.40;99.90
33645;DHT22;19986;48.190;16.366;2024-02-23T09:22:05;14.40;99.90
33645;DHT22;19986;48.190;16.366;2024-02-23T09:24:30;14.30;99.90
33645;DHT22;19986;48.190;16.366;2024-02-23T09:26:58;14.30;99.90
33645;DHT22;19986;48.190;16.366;2024-02-23T09:29:24;14.30;99.90
33645;DHT22;19986;48.190;16.366;2024-02-23T09:31:59;14.30;99.90
33645;DHT22;19986;48.190;16.366;2024-02-23T09:34:26;14.30;99.90
33645;DHT22;19986;48.190;16.366;2024-02-23T09:36:54;14.30;99.90
33645;DHT22;19986;48.190;16.366;2024-02-23T09:39:21;14.30;99.90
33645;DHT22;19986;48.190;16.366;2024-02-23T09:41:50;14.30;99.90
33645;DHT22;19986;48.190;16.366;2024-02-23T09:44:17;14.30;99.90
33645;DHT22;19986;48.190;16.366;2024-02-23T09:46:43;14.40;99.90
33645;DHT22;19986;48.190;16.366;2024-02-23T09:49:11;14.50;99.90
33645;DHT22;19986;48.190;16.366;2024-02-23T09:51:39;14.50;99.90
33645;DHT22;19986;48.190;16.366;2024-02-23T09:54:05;14.50;99.90
33645;DHT22;19986;48.190;16.366;2024-02-23T09:56:31;14.50;99.90
33645;DHT22;19986;48.190;16.366;2024-02-23T09:59:01;14.50;99.90
33645;DHT22;19986;48.190;16.366;2024-02-23T10:01:32;14.60;99.90
33645;DHT22;19986;48.190;16.366;2024-02-23T10:04:02;14.60;99.90
33645;DHT22;19986;48.190;16.366;2024-02-23T10:06:30;14.50;99.90
33645;DHT22;19986;48.190;16.366;2024-02-23T10:08:56;14.60;99.90
33645;DHT22;19986;48.190;16.366;2024-02-23T10:11:22;14.60;99.90
33645;DHT22;19986;48.190;16.366;2024-02-23T10:13:49;14.60;99.90
33645;DHT22;19986;48.190;16.366;2024-02-23T10:16:18;14.60;99.90
33645;DHT22;19986;48.190;16.366;2024-02-23T10:18:49;14.60;99.90
33645;DHT22;19986;48.190;16.366;2024-02-23T10:21:16;14.60;99.90
33645;DHT22;19986;48.190;16.366;2024-02-23T10:23:44;14.60;99.90
33645;DHT22;19986;48.190;16.366;2024-02-23T10:26:11;14.60;99.90
33645;DHT22;19986;48.190;16.366;2024-02-23T10:28:37;14.60;99.90
33645;DHT22;19986;48.190;16.366;2024-02-23T10:31:06;14.60;99.90
33645;DHT22;19986;48.190;16.366;2024-02-23T10:33:32;14.50;99.90
33645;DHT22;19986;48.190;16.366;2024-02-23T10:36:00;14.50;99.90
33645;DHT22;19986;48.190;16.366;2024-02-23T10:38:27;14.40;99.90
33645;DHT22;19986;48.190;16.366;2024-02-23T10:40:57;14.30;99.90
33645;DHT22;19986;48.190;16.366;2024-02-23T10:43:30;14.30;99.90
33645;DHT22;19986;48.190;16.366;2024-02-23T10:45:59;14.30;99.90
33645;DHT22;19986;48.190;16.366;2024-02-23T10:48:29;14.40;99.90
33645;DHT22;19986;48.190;16.366;2024-02-23T10:50:56;14.50;99.90
33645;DHT22;19986;48.190;16.366;2024-02-23T10:53:25;14.60;99.90
33645;DHT22;19986;48.190;16.366;2024-02-23T10:56:00;14.70;99.90
33645;DHT22;19986;48.190;16.366;2024-02-23T10:58:26;15.00;99.90
33645;DHT22;19986;48.190;16.366;2024-02-23T11:00:57;15.00;99.90
33645;DHT22;19986;48.190;16.366;2024-02-23T11:03:31;15.00;99.90
33645;DHT22;19986;48.190;16.366;2024-02-23T11:05:59;14.90;99.90
33645;DHT22;19986;48.190;16.366;2024-02-23T11:08:29;14.80;99.90
33645;DHT22;19986;48.190;16.366;2024-02-23T11:10:55;14.70;99.90
33645;DHT22;19986;48.190;16.366;2024-02-23T11:13:50;14.60;99.90
33645;DHT22;19986;48.190;16.366;2024-02-23T11:16:22;14.60;99.90
33645;DHT22;19986;48.190;16.366;2024-02-23T11:19:06;14.70;99.90
33645;DHT22;19986;48.190;16.366;2024-02-23T11:21:37;14.70;99.90
33645;DHT22;19986;48.190;16.366;2024-02-23T11:24:04;14.50;99.90
33645;DHT22;19986;48.190;16.366;2024-02-23T11:26:30;14.50;99.90
33645;DHT22;19986;48.190;16.366;2024-02-23T11:28:57;14.60;99.90
33645;DHT22;19986;48.190;16.366;2024-02-23T11:31:25;14.60;99.90
33645;DHT22;19986;48.190;16.366;2024-02-23T11:33:55;14.60;99.90
33645;DHT22;19986;48.190;16.366;2024-02-23T11:36:32;14.50;99.90
33645;DHT22;19986;48.190;16.366;2024-02-23T11:39:00;14.50;99.90
33645;DHT22;19986;48.190;16.366;2024-02-23T11:41:27;14.40;99.90
33645;DHT22;19986;48.190;16.366;2024-02-23T11:43:54;14.30;99.90
33645;DHT22;19986;48.190;16.366;2024-02-23T11:46:21;14.30;99.90
33645;DHT22;19986;48.190;16.366;2024-02-23T11:48:48;14.20;99.90
33645;DHT22;19986;48.190;16.366;2024-02-23T11:51:23;14.30;99.90
33645;DHT22;19986;48.190;16.366;2024-02-23T11:53:50;14.30;99.90
33645;DHT22;19986;48.190;16.366;2024-02-23T11:56:16;14.30;99.90
33645;DHT22;19986;48.190;16.366;2024-02-23T11:58:43;14.20;99.90
33645;DHT22;19986;48.190;16.366;2024-02-23T12:01:09;14.20;99.90
33645;DHT22;19986;48.190;16.366;2024-02-23T12:03:35;14.20;99.90
33645;DHT22;19986;48.190;16.366;2024-02-23T12:06:02;14.20;99.90
33645;DHT22;19986;48.190;16.366;2024-02-23T12:08:31;14.20;99.90
33645;DHT22;19986;48.190;16.366;2024-02-23T12:11:04;14.20;99.90
33645;DHT22;19986;48.190;16.366;2024-02-23T12:13:30;14.20;99.90
33645;DHT22;19986;48.190;16.366;2024-02-23T12:15:57;14.20;99.90
33645;DHT22;19986;48.190;16.366;2024-02-23T12:18:23;14.20;99.90
33645;DHT22;19986;48.190;16.366;2024-02-23T12:20:52;14.20;99.90
33645;DHT22;19986;48.190;16.366;2024-02-23T12:23:18;14.20;99.90
33645;DHT22;19986;48.190;16.366;2024-02-23T12:25:56;14.10;99.90
33645;DHT22;19986;48.190;16.366;2024-02-23T12:28:23;14.10;99.90
33645;DHT22;19986;48.190;16.366;2024-02-23T12:31:05;14.00;99.90
33645;DHT22;19986;48.190;16.366;2024-02-23T12:33:32;14.00;99.90
33645;DHT22;19986;48.190;16.366;2024-02-23T12:36:01;14.00;99.90
33645;DHT22;19986;48.190;16.366;2024-02-23T12:38:27;14.00;99.90
33645;DHT22;19986;48.190;16.366;2024-02-23T12:40:53;13.90;99.90
33645;DHT22;19986;48.190;16.366;2024-02-23T12:43:19;13.80;99.90
33645;DHT22;19986;48.190;16.366;2024-02-23T12:45:47;13.70;99.90
33645;DHT22;19986;48.190;16.366;2024-02-23T12:48:17;13.70;99.90
33645;DHT22;19986;48.190;16.366;2024-02-23T12:50:43;13.70;99.90
33645;DHT22;19986;48.190;16.366;2024-02-23T12:56:11;13.80;99.90
33645;DHT22;19986;48.190;16.366;2024-02-23T12:58:41;13.70;99.90
33645;DHT22;19986;48.190;16.366;2024-02-23T13:01:08;13.60;99.90
33645;DHT22;19986;48.190;16.366;2024-02-23T13:03:38;13.50;99.90
33645;DHT22;19986;48.190;16.366;2024-02-23T13:06:07;13.50;99.90
33645;DHT22;19986;48.190;16.366;2024-02-23T13:08:33;13.40;99.90
33645;DHT22;19986;48.190;16.366;2024-02-23T13:11:00;13.30;99.90
33645;DHT22;19986;48.190;16.366;2024-02-23T13:13:26;13.30;99.90
33645;DHT22;19986;48.190;16.366;2024-02-23T13:15:53;13.30;99.90
33645;DHT22;19986;48.190;16.366;2024-02-23T13:18:19;13.30;99.90
33645;DHT22;19986;48.190;16.366;2024-02-23T13:20:45;13.20;99.90
33645;DHT22;19986;48.190;16.366;2024-02-23T13:23:12;13.10;99.90
33645;DHT22;19986;48.190;16.366;2024-02-23T13:25:41;13.10;99.90
33645;DHT22;19986;48.190;16.366;2024-02-23T13:28:08;13.00;99.90
33645;DHT22;19986;48.190;16.366;2024-02-23T13:30:35;13.00;99.90
33645;DHT22;19986;48.190;16.366;2024-02-23T13:33:02;12.90;99.90
33645;DHT22;19986;48.190;16.366;2024-02-23T13:35:28;13.00;99.90
33645;DHT22;19986;48.190;16.366;2024-02-23T13:37:54;13.00;99.90
33645;DHT22;19986;48.190;16.366;2024-02-23T13:40:20;13.10;99.90
33645;DHT22;19986;48.190;16.366;2024-02-23T13:42:46;13.10;99.90
33645;DHT22;19986;48.190;16.366;2024-02-23T13:45:16;13.00;99.90
33645;DHT22;19986;48.190;16.366;2024-02-23T13:47:43;13.00;99.90
33645;DHT22;19986;48.190;16.366;2024-02-23T13:50:10;12.90;99.90
33645;DHT22;19986;48.190;16.366;2024-02-23T13:52:37;12.90;99.90
33645;DHT22;19986;48.190;16.366;2024-02-23T13:55:06;12.90;99.90
33645;DHT22;19986;48.190;16.366;2024-02-23T13:57:32;12.90;99.90
33645;DHT22;19986;48.190;16.366;2024-02-23T14:00:00;13.00;99.90
33645;DHT22;19986;48.190;16.366;2024-02-23T14:02:26;13.00;99.90
33645;DHT22;19986;48.190;16.366;2024-02-23T14:04:52;13.00;99.90
33645;DHT22;19986;48.190;16.366;2024-02-23T14:07:20;13.00;99.90
33645;DHT22;19986;48.190;16.366;2024-02-23T14:09:45;13.00;99.90
33645;DHT22;19986;48.190;16.366;2024-02-23T14:12:12;13.00;99.90
33645;DHT22;19986;48.190;16.366;2024-02-23T14:14:37;13.00;99.90
33645;DHT22;19986;48.190;16.366;2024-02-23T14:17:03;13.00;99.90
33645;DHT22;19986;48.190;16.366;2024-02-23T14:19:29;13.00;99.90
33645;DHT22;19986;48.190;16.366;2024-02-23T14:21:57;13.00;99.90
33645;DHT22;19986;48.190;16.366;2024-02-23T14:24:23;13.00;99.90
33645;DHT22;19986;48.190;16.366;2024-02-23T14:26:48;13.00;99.90
33645;DHT22;19986;48.190;16.366;2024-02-23T14:29:16;13.00;99.90
33645;DHT22;19986;48.190;16.366;2024-02-23T14:31:43;13.00;99.90
33645;DHT22;19986;48.190;16.366;2024-02-23T14:34:09;13.00;99.90
33645;DHT22;19986;48.190;16.366;2024-02-23T14:36:35;13.00;99.90
33645;DHT22;19986;48.190;16.366;2024-02-23T14:39:00;13.00;99.90
33645;DHT22;19986;48.190;16.366;2024-02-23T14:41:26;12.90;99.90
33645;DHT22;19986;48.190;16.366;2024-02-23T14:43:54;12.90;99.90
33645;DHT22;19986;48.190;16.366;2024-02-23T14:46:20;13.00;99.90
33645;DHT22;19986;48.190;16.366;2024-02-23T14:48:46;13.00;99.90
33645;DHT22;19986;48.190;16.366;2024-02-23T14:51:15;13.00;99.90
33645;DHT22;19986;48.190;16.366;2024-02-23T14:53:41;13.10;99.90
33645;DHT22;19986;48.190;16.366;2024-02-23T14:56:08;13.10;99.90
33645;DHT22;19986;48.190;16.366;2024-02-23T14:58:34;13.00;99.90
33645;DHT22;19986;48.190;16.366;2024-02-23T15:01:00;13.10;99.90
33645;DHT22;19986;48.190;16.366;2024-02-23T15:03:26;13.10;99.90
33645;DHT22;19986;48.190;16.366;2024-02-23T15:05:52;13.10;99.90
33645;DHT22;19986;48.190;16.366;2024-02-23T15:08:18;13.20;99.90
33645;DHT22;19986;48.190;16.366;2024-02-23T15:10:43;13.20;99.90
33645;DHT22;19986;48.190;16.366;2024-02-23T15:13:09;13.30;99.90
33645;DHT22;19986;48.190;16.366;2024-02-23T15:15:35;13.30;99.90
33645;DHT22;19986;48.190;16.366;2024-02-23T15:18:05;13.40;99.90